KCVO/CVO METAR and TAF weather

Enter ICAO airport designator
Station Type Date Time Source
KCVO METAR 2021/07/29 18:56 UTC NOAA

KCVO 291856Z AUTO 36006KT 10SM CLR 31/12 A3000 RMK AO2 SLP158 T03110117


Station Type Date Time Source
KCVO Decoded METAR 2021/07/29 18:56 UTC NOAA

Corvallis, Corvallis Municipal Airport, OR, United States (KCVO) 44-30N 123-17W
Jul 29, 2021 - 02:56 PM EDT / 2021.07.29 1856 UTC
Wind: from the N (360 degrees) at 7 MPH (6 KT):0
Visibility: 10 mile(s):0
Sky conditions: clear
Temperature: 88.0 F (31.1 C)
Dew Point: 53.1 F (11.7 C)
Relative Humidity: 30%
Pressure (altimeter): 30 in. Hg (1015 hPa)
ob: KCVO 291856Z AUTO 36006KT 10SM CLR 31/12 A3000 RMK AO2 SLP158 T03110117
cycle: 19

Station Type Date Time Source
KCVO TAF UTC NOAA

Error!

Example: see airport list